createdAt,value
2018-02-02T00:01:49.654Z,3.81
2018-02-02T00:04:24.630Z,3.81
2018-02-02T00:07:00.045Z,3.84
2018-02-02T00:09:34.820Z,3.83
2018-02-02T00:12:10.191Z,3.81
2018-02-02T00:14:45.310Z,3.84
2018-02-02T00:17:20.304Z,3.86
2018-02-02T00:19:55.350Z,3.91
2018-02-02T00:22:30.463Z,3.91
2018-02-02T00:25:05.219Z,3.94
2018-02-02T00:27:40.603Z,3.89
2018-02-02T00:30:15.527Z,3.89
2018-02-02T00:32:50.399Z,3.94
2018-02-02T00:35:25.450Z,3.95
2018-02-02T00:38:00.307Z,3.94
2018-02-02T00:40:35.403Z,3.90
2018-02-02T00:43:10.308Z,3.91
2018-02-02T00:45:45.891Z,3.94
2018-02-02T00:48:20.662Z,3.93
2018-02-02T00:51:01.118Z,3.95
2018-02-02T00:53:35.848Z,3.92
2018-02-02T00:56:10.993Z,3.87
2018-02-02T00:58:45.791Z,3.84
2018-02-02T01:01:21.363Z,3.82
2018-02-02T01:03:56.082Z,3.72
2018-02-02T01:06:31.266Z,3.72
2018-02-02T01:09:06.401Z,3.72
2018-02-02T01:11:41.242Z,3.78
2018-02-02T01:14:16.358Z,3.79
2018-02-02T01:16:51.411Z,3.85
2018-02-02T01:19:26.509Z,3.88
2018-02-02T01:22:01.423Z,3.90
2018-02-02T01:24:36.480Z,3.98
2018-02-02T01:27:11.398Z,4.02
2018-02-02T01:29:46.610Z,4.05
2018-02-02T01:32:21.392Z,4.12
2018-02-02T01:34:56.387Z,4.16
2018-02-02T01:37:31.542Z,4.17
2018-02-02T01:40:06.538Z,4.15
2018-02-02T01:42:41.618Z,4.13
2018-02-02T01:45:16.099Z,4.17
2018-02-02T02:01:20.248Z,4.25
2018-02-02T02:03:55.592Z,4.28
2018-02-02T02:06:30.647Z,4.24
2018-02-02T02:09:05.435Z,4.25
2018-02-02T02:11:40.927Z,4.21
2018-02-02T02:14:15.946Z,4.23
2018-02-02T02:16:50.854Z,4.22
2018-02-02T02:19:26.502Z,4.20
2018-02-02T02:22:01.714Z,4.27
2018-02-02T02:24:37.044Z,4.31
2018-02-02T02:27:12.451Z,4.29
2018-02-02T02:29:47.858Z,4.25
2018-02-02T02:32:22.898Z,4.21
2018-02-02T02:34:58.272Z,4.19
2018-02-02T02:37:33.562Z,4.26
2018-02-02T02:40:08.675Z,4.29
2018-02-02T02:42:43.962Z,4.29
2018-02-02T02:45:19.498Z,4.32
2018-02-02T02:47:54.714Z,4.29
2018-02-02T02:50:29.776Z,4.30
2018-02-02T02:53:04.727Z,4.35
2018-02-02T02:55:40.919Z,4.30
2018-02-02T02:58:15.730Z,4.33
2018-02-02T03:00:50.778Z,4.25
2018-02-02T03:03:25.834Z,4.28
2018-02-02T03:06:00.986Z,4.36
2018-02-02T03:08:36.375Z,4.39
2018-02-02T03:11:11.147Z,4.39
2018-02-02T03:13:46.711Z,4.38
2018-02-02T03:16:21.256Z,4.32
2018-02-02T03:18:56.542Z,4.38
2018-02-02T03:21:31.739Z,4.36
2018-02-02T03:24:06.786Z,4.31
2018-02-02T03:26:42.242Z,4.36
2018-02-02T03:29:17.644Z,4.34
2018-02-02T03:31:52.963Z,4.37
2018-02-02T03:34:27.859Z,4.40
2018-02-02T03:37:02.623Z,4.43
2018-02-02T03:39:37.831Z,4.38
2018-02-02T03:42:12.870Z,4.39
2018-02-02T03:44:48.146Z,4.47
2018-02-02T03:47:23.181Z,4.51
2018-02-02T03:49:58.991Z,4.52
2018-02-02T03:52:33.408Z,4.48
2018-02-02T03:55:08.910Z,4.45
2018-02-02T03:57:43.886Z,4.42
2018-02-02T04:00:18.803Z,4.43
2018-02-02T04:02:54.043Z,4.48
2018-02-02T04:05:28.971Z,4.49
2018-02-02T04:08:03.795Z,4.53
2018-02-02T04:10:38.866Z,4.45
2018-02-02T04:13:13.930Z,4.35
2018-02-02T04:15:49.181Z,4.37
2018-02-02T04:18:23.994Z,4.40
2018-02-02T04:20:58.583Z,4.40
2018-02-02T04:23:33.923Z,4.37
2018-02-02T04:26:08.995Z,4.32
2018-02-02T04:28:44.122Z,4.34
2018-02-02T04:31:18.794Z,4.31
2018-02-02T04:33:53.794Z,4.24
2018-02-02T04:36:28.099Z,4.13
2018-02-02T04:39:03.119Z,3.97
2018-02-02T04:41:37.879Z,3.81
2018-02-02T04:44:12.502Z,3.73
2018-02-02T04:46:47.758Z,3.66
2018-02-02T04:49:22.716Z,3.65
2018-02-02T04:51:58.346Z,3.62
2018-02-02T04:54:33.203Z,3.66
2018-02-02T04:57:08.117Z,3.62
2018-02-02T04:59:43.162Z,3.53
2018-02-02T05:02:18.486Z,3.45
2018-02-02T05:04:53.200Z,3.41
2018-02-02T05:07:28.019Z,3.38
2018-02-02T05:10:03.182Z,3.43
2018-02-02T05:12:38.038Z,3.40
2018-02-02T05:15:12.419Z,3.26
2018-02-02T05:17:47.398Z,3.21
2018-02-02T05:20:22.894Z,3.20
2018-02-02T05:22:58.088Z,3.25
2018-02-02T05:25:33.090Z,3.25
2018-02-02T05:28:07.978Z,3.17
2018-02-02T05:30:43.384Z,3.07
2018-02-02T05:33:18.404Z,3.02
2018-02-02T05:35:53.430Z,2.95
2018-02-02T05:38:28.176Z,2.96
2018-02-02T05:41:03.404Z,2.98
2018-02-02T05:43:38.613Z,2.86
2018-02-02T05:46:14.034Z,2.81
2018-02-02T05:48:49.073Z,2.82
2018-02-02T05:51:24.193Z,2.87
2018-02-02T05:53:59.495Z,2.87
2018-02-02T05:56:34.554Z,2.85
2018-02-02T05:59:09.627Z,2.90
2018-02-02T06:01:44.308Z,2.87
2018-02-02T06:04:18.998Z,2.94
2018-02-02T06:06:54.059Z,2.95
2018-02-02T06:09:29.376Z,3.02
2018-02-02T06:12:04.106Z,3.12
2018-02-02T06:14:38.779Z,3.11
2018-02-02T06:17:13.308Z,3.13
2018-02-02T06:19:48.478Z,3.16
2018-02-02T06:22:23.226Z,3.16
2018-02-02T06:24:58.458Z,3.15
2018-02-02T06:27:33.531Z,3.15
2018-02-02T06:30:09.023Z,3.21
2018-02-02T06:32:43.771Z,3.26
2018-02-02T06:35:19.079Z,3.25
2018-02-02T06:37:53.898Z,3.27
2018-02-02T06:40:29.357Z,3.30
2018-02-02T06:43:04.436Z,3.35
2018-02-02T06:45:39.251Z,3.37
2018-02-02T06:48:14.307Z,3.40
2018-02-02T06:50:49.308Z,3.39
2018-02-02T06:53:24.524Z,3.40
2018-02-02T06:55:59.689Z,3.39
2018-02-02T06:58:34.713Z,3.47
2018-02-02T07:01:08.902Z,3.53
2018-02-02T07:03:44.379Z,3.56
2018-02-02T07:06:19.190Z,3.61
2018-02-02T07:08:54.666Z,3.67
2018-02-02T07:11:29.332Z,3.64
2018-02-02T07:14:04.327Z,3.65
2018-02-02T07:16:38.812Z,3.71
2018-02-02T07:19:13.814Z,3.72
2018-02-02T07:21:48.693Z,3.69
2018-02-02T07:24:23.270Z,3.66
2018-02-02T07:26:57.646Z,3.71
2018-02-02T07:29:32.674Z,3.76
2018-02-02T07:32:07.834Z,3.81
2018-02-02T07:34:42.820Z,3.85
2018-02-02T07:37:17.802Z,3.83
2018-02-02T07:39:53.064Z,3.78
2018-02-02T07:42:28.554Z,3.73
2018-02-02T07:45:02.977Z,3.79
2018-02-02T07:47:37.546Z,3.82
2018-02-02T07:50:12.548Z,3.86
2018-02-02T07:52:47.682Z,3.84
2018-02-02T07:55:22.660Z,3.82
2018-02-02T07:57:58.156Z,3.78
2018-02-02T08:00:38.870Z,3.82
2018-02-02T08:03:13.416Z,3.84
2018-02-02T08:05:48.570Z,3.84
2018-02-02T08:08:23.588Z,3.84
2018-02-02T08:10:58.584Z,3.86
2018-02-02T08:13:33.648Z,3.81
2018-02-02T08:16:08.048Z,3.88
2018-02-02T08:18:43.626Z,4.01
2018-02-02T08:21:18.499Z,4.08
2018-02-02T08:23:53.047Z,4.03
2018-02-02T08:26:28.056Z,4.05
2018-02-02T08:29:02.694Z,3.99
2018-02-02T08:31:38.014Z,4.03
2018-02-02T08:34:13.485Z,4.05
2018-02-02T08:36:48.196Z,4.01
2018-02-02T08:39:22.651Z,4.01
2018-02-02T08:41:57.531Z,4.03
2018-02-02T08:44:32.530Z,4.06
2018-02-02T08:47:07.639Z,4.06
2018-02-02T08:49:42.856Z,4.06
2018-02-02T08:52:17.640Z,4.10
2018-02-02T08:54:53.136Z,4.09
2018-02-02T08:57:27.797Z,4.08
2018-02-02T09:00:02.762Z,4.11
2018-02-02T09:02:38.007Z,4.14
2018-02-02T09:05:12.912Z,4.06
2018-02-02T09:07:47.926Z,4.17
2018-02-02T09:10:23.472Z,4.18
2018-02-02T09:12:58.775Z,4.11
2018-02-02T09:15:33.615Z,4.08
2018-02-02T09:18:09.118Z,4.13
2018-02-02T09:20:44.268Z,4.19
2018-02-02T09:23:19.171Z,4.19
2018-02-02T09:25:54.178Z,4.29
2018-02-02T09:28:28.735Z,4.25
2018-02-02T09:31:03.758Z,4.23
2018-02-02T09:33:38.482Z,4.25
2018-02-02T09:36:13.798Z,4.27
2018-02-02T09:38:48.710Z,4.24
2018-02-02T09:41:23.848Z,4.26
2018-02-02T09:43:59.211Z,4.30
2018-02-02T09:46:34.280Z,4.32
2018-02-02T09:49:09.809Z,4.35
2018-02-02T09:51:44.962Z,4.32
2018-02-02T09:54:20.629Z,4.30
2018-02-02T09:56:55.818Z,4.33
2018-02-02T09:59:30.842Z,4.38
2018-02-02T10:02:05.520Z,4.40
2018-02-02T10:04:42.099Z,4.44
2018-02-02T10:07:17.624Z,4.51
2018-02-02T10:09:52.863Z,4.53
2018-02-02T10:12:28.147Z,4.58
2018-02-02T10:15:03.756Z,4.54
2018-02-02T10:17:39.194Z,4.51
2018-02-02T10:20:13.842Z,4.51
2018-02-02T10:22:49.135Z,4.48
2018-02-02T10:25:24.295Z,4.47
2018-02-02T10:27:59.772Z,4.50
2018-02-02T10:30:35.032Z,4.57
2018-02-02T10:33:09.862Z,4.59
2018-02-02T10:35:44.927Z,4.62
2018-02-02T10:38:19.835Z,4.61
2018-02-02T10:40:55.641Z,4.59
2018-02-02T10:43:30.991Z,4.65
2018-02-02T10:46:06.537Z,4.70
2018-02-02T10:48:42.251Z,4.78
2018-02-02T10:51:17.235Z,4.83
2018-02-02T10:53:52.298Z,4.80
2018-02-02T10:56:27.216Z,4.78
2018-02-02T10:59:02.455Z,4.79
2018-02-02T11:01:38.100Z,4.88
2018-02-02T11:04:12.822Z,4.93
2018-02-02T11:06:48.393Z,4.95
2018-02-02T11:09:22.924Z,4.97
2018-02-02T11:11:58.174Z,5.00
2018-02-02T11:14:33.280Z,5.00
2018-02-02T11:17:08.895Z,5.01
2018-02-02T11:19:44.254Z,5.02
2018-02-02T11:22:19.121Z,5.06
2018-02-02T11:24:54.230Z,5.06
2018-02-02T11:27:29.276Z,5.15
2018-02-02T11:30:04.207Z,5.17
2018-02-02T11:32:38.916Z,5.13
2018-02-02T11:35:14.127Z,5.18
2018-02-02T11:37:49.594Z,5.26
2018-02-02T11:40:24.068Z,5.27
2018-02-02T11:42:59.069Z,5.32
2018-02-02T11:45:34.449Z,5.35
2018-02-02T11:48:10.075Z,5.41
2018-02-02T11:50:45.422Z,5.50
2018-02-02T11:53:20.906Z,5.56
2018-02-02T11:55:56.339Z,5.62
2018-02-02T11:58:31.195Z,5.67
2018-02-02T12:01:06.027Z,5.73
2018-02-02T12:03:42.539Z,5.79
2018-02-02T12:06:17.790Z,5.89
2018-02-02T12:08:52.590Z,5.90
2018-02-02T12:11:27.450Z,5.92
2018-02-02T12:14:02.574Z,5.95
2018-02-02T12:16:37.538Z,6.00
2018-02-02T12:19:12.040Z,5.99
2018-02-02T12:21:47.824Z,6.04
2018-02-02T12:24:28.132Z,6.08
2018-02-02T12:40:27.218Z,6.25
2018-02-02T12:43:02.195Z,6.24
2018-02-02T12:45:37.330Z,6.21
2018-02-02T12:48:18.240Z,6.30
2018-02-02T12:50:58.699Z,6.32
2018-02-02T12:53:33.779Z,6.37
2018-02-02T12:56:09.171Z,6.49
2018-02-02T12:58:44.351Z,6.53
2018-02-02T13:01:19.219Z,6.49
2018-02-02T13:03:54.530Z,6.46
2018-02-02T13:06:29.374Z,6.47
2018-02-02T13:09:03.656Z,6.47
2018-02-02T13:11:38.396Z,6.46
2018-02-02T13:14:13.383Z,6.51
2018-02-02T13:16:48.502Z,6.57
2018-02-02T13:19:23.463Z,6.58
2018-02-02T13:21:59.006Z,6.52
2018-02-02T13:24:33.724Z,6.47
2018-02-02T13:27:08.743Z,6.44
2018-02-02T13:29:43.452Z,6.39
2018-02-02T13:32:18.147Z,6.36
2018-02-02T13:34:53.467Z,6.38
2018-02-02T13:37:28.304Z,6.46
2018-02-02T13:40:03.495Z,6.56
2018-02-02T13:42:38.483Z,6.59
2018-02-02T13:45:13.404Z,6.65
2018-02-02T13:47:48.606Z,6.68
2018-02-02T13:50:23.877Z,6.71
2018-02-02T13:52:58.368Z,6.68
2018-02-02T13:55:33.730Z,6.68
2018-02-02T13:58:08.543Z,6.65
2018-02-02T14:00:43.683Z,6.62
2018-02-02T14:03:18.743Z,6.61
2018-02-02T14:05:53.876Z,6.62
2018-02-02T14:08:29.450Z,6.59
2018-02-02T14:11:04.470Z,6.62
2018-02-02T14:13:39.590Z,6.69
2018-02-02T14:16:14.695Z,6.76
2018-02-02T14:18:49.588Z,6.81
2018-02-02T14:21:24.618Z,6.82
2018-02-02T14:23:59.595Z,6.82
2018-02-02T14:26:34.595Z,6.79
2018-02-02T14:29:09.598Z,6.80
2018-02-02T14:31:44.738Z,6.80
2018-02-02T14:34:19.418Z,6.75
2018-02-02T14:36:54.606Z,6.73
2018-02-02T14:39:29.947Z,6.70
2018-02-02T14:42:04.655Z,6.72
2018-02-02T14:44:39.968Z,6.77
2018-02-02T14:47:15.499Z,6.81
2018-02-02T14:49:50.594Z,6.77
2018-02-02T14:52:25.567Z,6.79
2018-02-02T14:55:00.718Z,6.68
2018-02-02T14:57:36.566Z,6.73
2018-02-02T15:00:11.379Z,6.78
2018-02-02T15:02:46.588Z,6.81
2018-02-02T15:05:21.492Z,6.78
2018-02-02T15:07:56.364Z,6.73
2018-02-02T15:10:31.270Z,6.76
2018-02-02T15:13:05.888Z,6.74
2018-02-02T15:15:40.806Z,6.73
2018-02-02T15:18:15.705Z,6.70
2018-02-02T15:20:50.727Z,6.72
2018-02-02T15:23:28.403Z,6.70
2018-02-02T15:26:02.844Z,6.73
2018-02-02T15:28:37.894Z,6.73
2018-02-02T15:31:13.070Z,6.62
2018-02-02T15:33:48.466Z,6.62
2018-02-02T15:36:23.299Z,6.58
2018-02-02T15:38:58.158Z,6.52
2018-02-02T15:41:32.678Z,6.49
2018-02-02T15:44:08.047Z,6.49
2018-02-02T15:46:43.070Z,6.50
2018-02-02T15:49:17.656Z,6.49
2018-02-02T15:51:53.016Z,6.47
2018-02-02T15:54:27.752Z,6.43
2018-02-02T15:57:02.977Z,6.41
2018-02-02T15:59:37.852Z,6.42
2018-02-02T16:02:12.982Z,6.40
2018-02-02T16:04:48.024Z,6.38
2018-02-02T16:07:23.467Z,6.31
2018-02-02T16:09:57.555Z,6.33
2018-02-02T16:12:32.327Z,6.33
2018-02-02T16:15:06.910Z,6.32
2018-02-02T16:17:43.060Z,6.43
2018-02-02T16:20:18.348Z,6.43
2018-02-02T16:22:53.317Z,6.39
2018-02-02T16:25:27.865Z,6.40
2018-02-02T16:28:02.639Z,6.43
2018-02-02T16:30:37.772Z,6.53
2018-02-02T16:33:12.494Z,6.54
2018-02-02T16:35:47.379Z,6.56
2018-02-02T16:38:21.714Z,6.53
2018-02-02T16:40:56.894Z,6.46
2018-02-02T16:43:31.906Z,6.41
2018-02-02T16:46:07.144Z,6.34
2018-02-02T16:48:43.214Z,6.37
2018-02-02T16:51:18.261Z,6.39
2018-02-02T16:53:52.914Z,6.36
2018-02-02T16:56:27.899Z,6.31
2018-02-02T16:59:02.982Z,6.26
2018-02-02T17:01:37.455Z,6.25
2018-02-02T17:04:12.171Z,6.27
2018-02-02T17:06:47.041Z,6.32
2018-02-02T17:09:21.860Z,6.32
2018-02-02T17:11:56.963Z,6.26
2018-02-02T17:14:32.164Z,6.26
2018-02-02T17:17:07.394Z,6.15
2018-02-02T17:19:43.399Z,6.25
2018-02-02T17:22:18.380Z,6.26
2018-02-02T17:24:53.303Z,6.29
2018-02-02T17:27:28.360Z,6.21
2018-02-02T17:30:02.939Z,6.14
2018-02-02T17:32:38.213Z,6.12
2018-02-02T17:35:13.142Z,6.16
2018-02-02T17:37:48.319Z,6.12
2018-02-02T17:40:23.299Z,6.07
2018-02-02T17:42:58.319Z,5.99
2018-02-02T17:45:33.967Z,5.97
2018-02-02T17:48:08.608Z,5.95
2018-02-02T17:50:43.575Z,5.99
2018-02-02T17:53:18.563Z,5.99
2018-02-02T17:55:53.419Z,5.95
2018-02-02T17:58:28.539Z,5.95
2018-02-02T18:01:04.660Z,6.00
2018-02-02T18:03:39.150Z,6.01
2018-02-02T18:06:14.320Z,6.00
2018-02-02T18:08:50.185Z,5.98
2018-02-02T18:11:25.095Z,6.02
2018-02-02T18:13:59.495Z,6.03
2018-02-02T18:16:34.552Z,6.01
2018-02-02T18:19:09.843Z,5.95
2018-02-02T18:21:44.019Z,5.94
2018-02-02T18:24:19.128Z,5.96
2018-02-02T18:26:54.465Z,5.99
2018-02-02T18:29:29.284Z,5.99
2018-02-02T18:32:04.544Z,6.02
2018-02-02T18:34:39.759Z,6.02
2018-02-02T18:37:14.305Z,6.05
2018-02-02T18:39:49.419Z,6.05
2018-02-02T18:42:24.363Z,6.02
2018-02-02T18:44:59.880Z,6.02
2018-02-02T18:47:34.562Z,6.00
2018-02-02T18:50:09.767Z,5.96
2018-02-02T18:52:44.348Z,5.98
2018-02-02T18:55:19.455Z,6.02
2018-02-02T18:57:54.919Z,6.03
2018-02-02T19:00:29.648Z,5.95
2018-02-02T19:03:05.254Z,5.93
2018-02-02T19:05:40.307Z,5.93
2018-02-02T19:08:15.215Z,5.93
2018-02-02T19:10:50.159Z,5.95
2018-02-02T19:13:25.536Z,5.94
2018-02-02T19:16:00.286Z,5.90
2018-02-02T19:18:35.550Z,5.87
2018-02-02T19:21:10.419Z,5.82
2018-02-02T19:23:45.216Z,5.79
2018-02-02T19:26:20.173Z,5.82
2018-02-02T19:28:55.615Z,5.81
2018-02-02T19:31:30.245Z,5.78
2018-02-02T19:34:05.354Z,5.78
2018-02-02T19:36:40.290Z,5.71
2018-02-02T19:39:15.142Z,5.66
2018-02-02T19:41:50.154Z,5.63
2018-02-02T19:44:24.838Z,5.68
2018-02-02T19:46:59.492Z,5.68
2018-02-02T19:49:34.470Z,5.71
2018-02-02T19:52:08.918Z,5.71
2018-02-02T19:54:43.495Z,5.68
2018-02-02T19:57:18.460Z,5.68
2018-02-02T19:59:53.595Z,5.61
2018-02-02T20:02:28.726Z,5.61
2018-02-02T20:05:03.642Z,5.60
2018-02-02T20:07:38.826Z,5.62
2018-02-02T20:10:14.342Z,5.59
2018-02-02T20:12:49.688Z,5.53
2018-02-02T20:15:25.033Z,5.54
2018-02-02T20:18:00.376Z,5.50
2018-02-02T20:20:35.492Z,5.45
2018-02-02T20:23:10.324Z,5.48
2018-02-02T20:25:45.571Z,5.53
2018-02-02T20:28:20.483Z,5.52
2018-02-02T20:30:55.659Z,5.48
2018-02-02T20:33:30.595Z,5.46
2018-02-02T20:36:05.726Z,5.47
2018-02-02T20:38:40.696Z,5.36
2018-02-02T20:41:15.625Z,5.45
2018-02-02T20:43:50.801Z,5.48
2018-02-02T20:46:25.593Z,5.52
2018-02-02T20:49:00.547Z,5.48
2018-02-02T20:51:34.891Z,5.45
2018-02-02T20:54:10.606Z,5.40
2018-02-02T20:56:45.812Z,5.42
2018-02-02T20:59:20.548Z,5.42
2018-02-02T21:01:55.755Z,5.42
2018-02-02T21:04:31.243Z,5.41
2018-02-02T21:07:06.260Z,5.43
2018-02-02T21:09:41.164Z,5.42
2018-02-02T21:12:16.612Z,5.45
2018-02-02T21:14:51.839Z,5.49
2018-02-02T21:17:27.050Z,5.44
2018-02-02T21:20:01.953Z,5.41
2018-02-02T21:22:37.042Z,5.41
2018-02-02T21:25:12.578Z,5.43
2018-02-02T21:27:47.175Z,5.41
2018-02-02T21:30:22.478Z,5.38
2018-02-02T21:32:57.789Z,5.31
2018-02-02T21:35:32.727Z,5.33
2018-02-02T21:38:07.753Z,5.31
2018-02-02T21:40:44.015Z,5.25
2018-02-02T21:43:19.584Z,5.25
2018-02-02T21:45:54.601Z,5.22
2018-02-02T21:48:29.218Z,5.22
2018-02-02T21:51:03.784Z,5.27
2018-02-02T21:53:38.924Z,5.26
2018-02-02T21:56:13.902Z,5.31
2018-02-02T21:58:49.040Z,5.25
2018-02-02T22:01:23.826Z,5.19
2018-02-02T22:03:58.916Z,5.15
2018-02-02T22:06:33.480Z,5.15
2018-02-02T22:09:08.807Z,5.10
2018-02-02T22:11:44.111Z,5.09
2018-02-02T22:14:18.956Z,5.12
2018-02-02T22:16:53.974Z,5.05
2018-02-02T22:19:28.977Z,5.13
2018-02-02T22:22:03.827Z,5.09
2018-02-02T22:24:39.096Z,5.08
2018-02-02T22:27:13.550Z,5.15
2018-02-02T22:29:48.967Z,5.17
2018-02-02T22:32:23.892Z,5.15
2018-02-02T22:34:59.020Z,5.01
2018-02-02T22:37:33.948Z,5.11
2018-02-02T22:40:08.882Z,5.05
2018-02-02T22:42:44.194Z,5.03
2018-02-02T22:45:18.984Z,5.07
2018-02-02T22:47:53.978Z,5.04
2018-02-02T22:50:29.060Z,5.03
2018-02-02T22:53:04.038Z,5.09
2018-02-02T22:55:38.682Z,5.14
2018-02-02T22:58:13.859Z,5.08
2018-02-02T23:00:48.767Z,5.02
2018-02-02T23:03:23.864Z,5.05
2018-02-02T23:05:59.065Z,5.03
2018-02-02T23:08:34.172Z,5.06
2018-02-02T23:11:09.230Z,5.03
2018-02-02T23:13:44.267Z,5.03
2018-02-02T23:16:18.989Z,4.97
2018-02-02T23:18:54.508Z,4.94
2018-02-02T23:21:29.368Z,5.02
2018-02-02T23:24:03.897Z,5.08
2018-02-02T23:26:39.010Z,5.09
2018-02-02T23:29:14.095Z,5.05
2018-02-02T23:31:49.308Z,4.93
2018-02-02T23:34:23.815Z,4.89
2018-02-02T23:36:58.994Z,4.79
2018-02-02T23:39:34.031Z,4.73
2018-02-02T23:42:09.210Z,4.71
2018-02-02T23:44:44.298Z,4.57
2018-02-02T23:47:19.068Z,4.46
2018-02-02T23:49:54.070Z,4.47
2018-02-02T23:52:28.859Z,4.48
2018-02-02T23:55:04.295Z,4.50
2018-02-02T23:57:39.051Z,4.55
